sensor_id;sensor_type;location;lat;lon;timestamp;pressure;altitude;pressure_sealevel;temperature;humidity
706;BME280;21234;48.690;9.016;2023-05-08T00:00:09;96379.25;;;14.13;100.00
706;BME280;21234;48.690;9.016;2023-05-08T00:02:36;96383.03;;;14.02;100.00
706;BME280;21234;48.690;9.016;2023-05-08T00:05:03;96378.41;;;14.13;100.00
706;BME280;21234;48.690;9.016;2023-05-08T00:07:30;96369.41;;;14.12;100.00
706;BME280;21234;48.690;9.016;2023-05-08T00:09:56;96371.81;;;13.99;100.00
706;BME280;21234;48.690;9.016;2023-05-08T00:12:23;96372.09;;;13.97;100.00
706;BME280;21234;48.690;9.016;2023-05-08T00:14:51;96376.81;;;14.22;100.00
706;BME280;21234;48.690;9.016;2023-05-08T00:17:18;96371.34;;;14.27;100.00
706;BME280;21234;48.690;9.016;2023-05-08T00:19:44;96366.91;;;14.01;100.00
706;BME280;21234;48.690;9.016;2023-05-08T00:22:11;96380.81;;;13.89;100.00
706;BME280;21234;48.690;9.016;2023-05-08T00:24:38;96380.81;;;13.84;100.00
706;BME280;21234;48.690;9.016;2023-05-08T00:27:04;96386.28;;;13.84;100.00
706;BME280;21234;48.690;9.016;2023-05-08T00:29:32;96381.38;;;13.91;100.00
706;BME280;21234;48.690;9.016;2023-05-08T00:32:00;96381.63;;;13.85;100.00
706;BME280;21234;48.690;9.016;2023-05-08T00:34:27;96383.28;;;13.86;100.00
706;BME280;21234;48.690;9.016;2023-05-08T00:36:55;96379.75;;;13.90;100.00
706;BME280;21234;48.690;9.016;2023-05-08T00:39:22;96379.22;;;14.03;100.00
706;BME280;21234;48.690;9.016;2023-05-08T00:41:48;96380.31;;;14.02;100.00
706;BME280;21234;48.690;9.016;2023-05-08T00:44:15;96378.97;;;14.10;100.00
706;BME280;21234;48.690;9.016;2023-05-08T00:46:43;96387.97;;;14.05;100.00
706;BME280;21234;48.690;9.016;2023-05-08T00:49:13;96384.19;;;14.22;100.00
706;BME280;21234;48.690;9.016;2023-05-08T00:51:40;96386.63;;;14.18;100.00
706;BME280;21234;48.690;9.016;2023-05-08T00:54:09;96386.09;;;14.16;100.00
706;BME280;21234;48.690;9.016;2023-05-08T00:56:37;96388.78;;;14.06;100.00
706;BME280;21234;48.690;9.016;2023-05-08T00:59:08;96388.78;;;14.06;100.00
706;BME280;21234;48.690;9.016;2023-05-08T01:01:36;96396.72;;;14.07;100.00
706;BME280;21234;48.690;9.016;2023-05-08T01:04:03;96397.25;;;14.04;100.00
706;BME280;21234;48.690;9.016;2023-05-08T01:06:31;96390.44;;;14.07;100.00
706;BME280;21234;48.690;9.016;2023-05-08T01:08:58;96397.81;;;14.06;100.00
706;BME280;21234;48.690;9.016;2023-05-08T01:11:28;96393.44;;;14.05;100.00
706;BME280;21234;48.690;9.016;2023-05-08T01:14:03;96399.69;;;14.01;100.00
706;BME280;21234;48.690;9.016;2023-05-08T01:16:38;96392.84;;;13.98;100.00
706;BME280;21234;48.690;9.016;2023-05-08T01:19:22;96396.44;;;14.04;100.00
706;BME280;21234;48.690;9.016;2023-05-08T01:21:57;96395.59;;;14.03;100.00
706;BME280;21234;48.690;9.016;2023-05-08T01:27:39;96396.69;;;14.02;100.00
706;BME280;21234;48.690;9.016;2023-05-08T01:30:36;96395.59;;;13.98;100.00
706;BME280;21234;48.690;9.016;2023-05-08T01:33:12;96392.59;;;14.05;100.00
706;BME280;21234;48.690;9.016;2023-05-08T01:35:46;96396.16;;;14.05;100.00
706;BME280;21234;48.690;9.016;2023-05-08T01:38:21;96391.50;;;13.96;100.00
706;BME280;21234;48.690;9.016;2023-05-08T01:40:54;96391.22;;;13.97;100.00
706;BME280;21234;48.690;9.016;2023-05-08T01:43:30;96393.16;;;14.02;100.00
706;BME280;21234;48.690;9.016;2023-05-08T01:46:02;96400.53;;;13.96;100.00
706;BME280;21234;48.690;9.016;2023-05-08T01:48:34;96402.19;;;14.07;100.00
706;BME280;21234;48.690;9.016;2023-05-08T01:51:07;96395.91;;;14.07;100.00
706;BME280;21234;48.690;9.016;2023-05-08T01:53:40;96404.94;;;14.12;100.00
706;BME280;21234;48.690;9.016;2023-05-08T01:56:10;96402.44;;;14.01;100.00
706;BME280;21234;48.690;9.016;2023-05-08T01:58:37;96402.97;;;13.98;100.00
706;BME280;21234;48.690;9.016;2023-05-08T02:01:05;96411.72;;;14.00;100.00
706;BME280;21234;48.690;9.016;2023-05-08T02:03:36;96407.06;;;13.90;100.00
706;BME280;21234;48.690;9.016;2023-05-08T02:06:04;96404.34;;;13.95;100.00
706;BME280;21234;48.690;9.016;2023-05-08T02:08:32;96408.94;;;13.85;100.00
706;BME280;21234;48.690;9.016;2023-05-08T02:11:00;96403.72;;;13.78;100.00
706;BME280;21234;48.690;9.016;2023-05-08T02:13:28;96406.47;;;13.83;100.00
706;BME280;21234;48.690;9.016;2023-05-08T02:15:57;96404.84;;;13.82;100.00
706;BME280;21234;48.690;9.016;2023-05-08T02:18:26;96399.31;;;13.72;100.00
706;BME280;21234;48.690;9.016;2023-05-08T02:20:58;96404.50;;;13.68;100.00
706;BME280;21234;48.690;9.016;2023-05-08T02:23:27;96399.03;;;13.68;100.00
706;BME280;21234;48.690;9.016;2023-05-08T02:25:54;96402.84;;;13.67;100.00
706;BME280;21234;48.690;9.016;2023-05-08T02:28:22;96403.13;;;13.66;100.00
706;BME280;21234;48.690;9.016;2023-05-08T02:30:50;96406.94;;;13.60;100.00
706;BME280;21234;48.690;9.016;2023-05-08T02:33:18;96404.81;;;13.77;100.00
706;BME280;21234;48.690;9.016;2023-05-08T02:35:47;96417.88;;;13.70;100.00
706;BME280;21234;48.690;9.016;2023-05-08T02:38:16;96407.31;;;13.84;100.00
706;BME280;21234;48.690;9.016;2023-05-08T02:40:47;96416.06;;;13.86;100.00
706;BME280;21234;48.690;9.016;2023-05-08T02:43:16;96413.63;;;13.99;100.00
706;BME280;21234;48.690;9.016;2023-05-08T02:45:47;96408.66;;;13.81;100.00
706;BME280;21234;48.690;9.016;2023-05-08T02:48:21;96409.81;;;13.95;100.00
706;BME280;21234;48.690;9.016;2023-05-08T02:50:55;96401.06;;;13.98;100.00
706;BME280;21234;48.690;9.016;2023-05-08T02:53:31;96407.06;;;14.00;100.00
706;BME280;21234;48.690;9.016;2023-05-08T02:56:04;96411.47;;;14.06;100.00
706;BME280;21234;48.690;9.016;2023-05-08T02:58:37;96404.38;;;14.10;100.00
706;BME280;21234;48.690;9.016;2023-05-08T03:01:12;96407.41;;;14.14;100.00
706;BME280;21234;48.690;9.016;2023-05-08T03:03:41;96405.50;;;14.15;100.00
706;BME280;21234;48.690;9.016;2023-05-08T03:06:12;96410.13;;;14.09;100.00
706;BME280;21234;48.690;9.016;2023-05-08T03:08:41;96405.44;;;13.94;100.00
706;BME280;21234;48.690;9.016;2023-05-08T03:11:12;96408.19;;;13.94;100.00
706;BME280;21234;48.690;9.016;2023-05-08T03:13:41;96400.81;;;13.95;100.00
706;BME280;21234;48.690;9.016;2023-05-08T03:16:14;96402.09;;;13.77;100.00
706;BME280;21234;48.690;9.016;2023-05-08T03:18:48;96407.50;;;13.67;100.00
706;BME280;21234;48.690;9.016;2023-05-08T03:21:17;96403.94;;;13.61;100.00
706;BME280;21234;48.690;9.016;2023-05-08T03:23:47;96408.25;;;13.52;100.00
706;BME280;21234;48.690;9.016;2023-05-08T03:26:16;96401.47;;;13.65;100.00
706;BME280;21234;48.690;9.016;2023-05-08T03:28:45;96406.19;;;13.79;100.00
706;BME280;21234;48.690;9.016;2023-05-08T03:31:13;96404.25;;;13.75;100.00
706;BME280;21234;48.690;9.016;2023-05-08T03:33:43;96409.41;;;13.66;100.00
706;BME280;21234;48.690;9.016;2023-05-08T03:36:11;96411.00;;;13.52;100.00
706;BME280;21234;48.690;9.016;2023-05-08T03:38:38;96409.41;;;13.61;100.00
706;BME280;21234;48.690;9.016;2023-05-08T03:41:06;96410.53;;;13.75;100.00
706;BME280;21234;48.690;9.016;2023-05-08T03:43:35;96404.25;;;13.75;100.00
706;BME280;21234;48.690;9.016;2023-05-08T03:46:04;96406.47;;;13.78;100.00
706;BME280;21234;48.690;9.016;2023-05-08T03:48:32;96408.06;;;13.74;100.00
706;BME280;21234;48.690;9.016;2023-05-08T03:51:00;96406.78;;;13.87;100.00
706;BME280;21234;48.690;9.016;2023-05-08T03:53:28;96407.59;;;13.87;100.00
706;BME280;21234;48.690;9.016;2023-05-08T03:55:57;96402.59;;;13.64;100.00
706;BME280;21234;48.690;9.016;2023-05-08T03:58:30;96415.38;;;13.53;100.00
706;BME280;21234;48.690;9.016;2023-05-08T04:01:04;96413.66;;;13.42;100.00
706;BME280;21234;48.690;9.016;2023-05-08T04:03:43;96406.94;;;13.60;100.00
706;BME280;21234;48.690;9.016;2023-05-08T04:06:17;96421.31;;;13.45;100.00
706;BME280;21234;48.690;9.016;2023-05-08T04:09:00;96416.38;;;13.42;100.00
706;BME280;21234;48.690;9.016;2023-05-08T04:11:30;96420.50;;;13.44;100.00
706;BME280;21234;48.690;9.016;2023-05-08T04:14:03;96425.13;;;13.44;100.00
706;BME280;21234;48.690;9.016;2023-05-08T04:16:36;96422.97;;;13.46;100.00
706;BME280;21234;48.690;9.016;2023-05-08T04:19:09;96433.63;;;13.48;100.00
706;BME280;21234;48.690;9.016;2023-05-08T04:21:41;96435.53;;;13.47;100.00
706;BME280;21234;48.690;9.016;2023-05-08T04:24:12;96428.13;;;13.42;100.00
706;BME280;21234;48.690;9.016;2023-05-08T04:26:40;96434.41;;;13.43;100.00
706;BME280;21234;48.690;9.016;2023-05-08T04:29:09;96438.38;;;13.62;100.00
706;BME280;21234;48.690;9.016;2023-05-08T04:31:37;96441.38;;;13.61;100.00
706;BME280;21234;48.690;9.016;2023-05-08T04:34:06;96440.88;;;13.74;100.00
706;BME280;21234;48.690;9.016;2023-05-08T04:36:34;96442.47;;;13.70;100.00
706;BME280;21234;48.690;9.016;2023-05-08T04:39:01;96443.00;;;13.62;100.00
706;BME280;21234;48.690;9.016;2023-05-08T04:41:28;96443.00;;;13.62;100.00
706;BME280;21234;48.690;9.016;2023-05-08T04:43:55;96446.31;;;13.74;100.00
706;BME280;21234;48.690;9.016;2023-05-08T04:46:23;96452.34;;;13.76;100.00
706;BME280;21234;48.690;9.016;2023-05-08T04:48:50;96450.41;;;13.71;100.00
706;BME280;21234;48.690;9.016;2023-05-08T04:51:17;96449.03;;;13.69;100.00
706;BME280;21234;48.690;9.016;2023-05-08T04:53:43;96447.38;;;13.68;100.00
706;BME280;21234;48.690;9.016;2023-05-08T04:56:10;96450.44;;;13.76;100.00
706;BME280;21234;48.690;9.016;2023-05-08T04:58:38;96446.91;;;13.81;100.00
706;BME280;21234;48.690;9.016;2023-05-08T05:01:04;96448.03;;;13.85;100.00
706;BME280;21234;48.690;9.016;2023-05-08T05:03:32;96448.06;;;14.00;100.00
706;BME280;21234;48.690;9.016;2023-05-08T05:06:00;96447.22;;;13.85;100.00
706;BME280;21234;48.690;9.016;2023-05-08T05:08:27;96452.66;;;13.85;100.00
706;BME280;21234;48.690;9.016;2023-05-08T05:10:53;96461.38;;;13.76;100.00
706;BME280;21234;48.690;9.016;2023-05-08T05:13:20;96458.41;;;13.83;100.00
706;BME280;21234;48.690;9.016;2023-05-08T05:15:47;96456.75;;;13.82;100.00
706;BME280;21234;48.690;9.016;2023-05-08T05:18:16;96465.19;;;13.75;100.00
706;BME280;21234;48.690;9.016;2023-05-08T05:20:44;96466.53;;;13.73;100.00
706;BME280;21234;48.690;9.016;2023-05-08T05:23:10;96466.81;;;13.71;100.00
706;BME280;21234;48.690;9.016;2023-05-08T05:25:37;96470.34;;;13.72;100.00
706;BME280;21234;48.690;9.016;2023-05-08T05:28:04;96474.19;;;13.71;100.00
706;BME280;21234;48.690;9.016;2023-05-08T05:30:31;96465.75;;;13.77;100.00
706;BME280;21234;48.690;9.016;2023-05-08T05:32:59;96470.34;;;13.72;100.00
706;BME280;21234;48.690;9.016;2023-05-08T05:35:25;96469.78;;;13.70;100.00
706;BME280;21234;48.690;9.016;2023-05-08T05:37:53;96474.22;;;13.76;100.00
706;BME280;21234;48.690;9.016;2023-05-08T05:40:20;96481.50;;;13.65;100.00
706;BME280;21234;48.690;9.016;2023-05-08T05:42:48;96474.16;;;13.66;100.00
706;BME280;21234;48.690;9.016;2023-05-08T05:45:15;96476.03;;;13.60;100.00
706;BME280;21234;48.690;9.016;2023-05-08T05:47:45;96478.78;;;13.60;100.00
706;BME280;21234;48.690;9.016;2023-05-08T05:50:15;96479.34;;;13.62;100.00
706;BME280;21234;48.690;9.016;2023-05-08T05:52:42;96481.25;;;13.62;100.00
706;BME280;21234;48.690;9.016;2023-05-08T05:55:10;96474.13;;;13.61;100.00
706;BME280;21234;48.690;9.016;2023-05-08T05:57:37;96482.06;;;13.67;100.00
706;BME280;21234;48.690;9.016;2023-05-08T06:00:07;96479.06;;;13.64;100.00
706;BME280;21234;48.690;9.016;2023-05-08T06:02:34;96482.34;;;13.66;100.00
706;BME280;21234;48.690;9.016;2023-05-08T06:05:01;96474.16;;;13.66;100.00
706;BME280;21234;48.690;9.016;2023-05-08T06:07:29;96483.97;;;13.67;100.00
706;BME280;21234;48.690;9.016;2023-05-08T06:09:56;96479.91;;;13.64;100.00
706;BME280;21234;48.690;9.016;2023-05-08T06:12:24;96481.53;;;13.70;100.00
706;BME280;21234;48.690;9.016;2023-05-08T06:14:52;96485.47;;;13.85;100.00
706;BME280;21234;48.690;9.016;2023-05-08T06:17:18;96489.25;;;13.78;100.00
706;BME280;21234;48.690;9.016;2023-05-08T06:19:45;96486.84;;;13.87;100.00
706;BME280;21234;48.690;9.016;2023-05-08T06:22:14;96487.94;;;13.86;100.00
706;BME280;21234;48.690;9.016;2023-05-08T06:24:41;96492.00;;;13.84;100.00
706;BME280;21234;48.690;9.016;2023-05-08T06:27:08;96496.63;;;13.78;100.00
706;BME280;21234;48.690;9.016;2023-05-08T06:29:36;96497.19;;;13.80;100.00
706;BME280;21234;48.690;9.016;2023-05-08T06:32:03;96493.09;;;13.83;100.00
706;BME280;21234;48.690;9.016;2023-05-08T06:34:30;96491.22;;;13.88;100.00
706;BME280;21234;48.690;9.016;2023-05-08T06:36:57;96500.75;;;13.81;100.00
706;BME280;21234;48.690;9.016;2023-05-08T06:39:23;96498.56;;;13.83;100.00
706;BME280;21234;48.690;9.016;2023-05-08T06:41:50;96501.56;;;13.81;100.00
706;BME280;21234;48.690;9.016;2023-05-08T06:44:17;96506.22;;;13.86;100.00
706;BME280;21234;48.690;9.016;2023-05-08T06:46:45;96501.28;;;13.83;100.00
706;BME280;21234;48.690;9.016;2023-05-08T06:49:13;96497.50;;;13.89;100.00
706;BME280;21234;48.690;9.016;2023-05-08T06:51:39;96497.50;;;13.89;100.00
706;BME280;21234;48.690;9.016;2023-05-08T06:54:06;96497.22;;;13.85;100.00
706;BME280;21234;48.690;9.016;2023-05-08T06:56:33;96495.63;;;13.94;100.00
706;BME280;21234;48.690;9.016;2023-05-08T06:59:00;96498.38;;;13.94;100.00
706;BME280;21234;48.690;9.016;2023-05-08T07:01:26;96498.91;;;13.91;100.00
706;BME280;21234;48.690;9.016;2023-05-08T07:03:55;96504.91;;;13.93;100.00
706;BME280;21234;48.690;9.016;2023-05-08T07:06:21;96497.81;;;13.97;100.00
706;BME280;21234;48.690;9.016;2023-05-08T07:08:48;96497.28;;;14.00;100.00
706;BME280;21234;48.690;9.016;2023-05-08T07:11:15;96502.47;;;14.02;100.00
706;BME280;21234;48.690;9.016;2023-05-08T07:13:42;96489.66;;;14.07;100.00
706;BME280;21234;48.690;9.016;2023-05-08T07:16:10;96496.81;;;14.19;100.00
706;BME280;21234;48.690;9.016;2023-05-08T07:18:37;96496.81;;;14.19;100.00
706;BME280;21234;48.690;9.016;2023-05-08T07:21:05;96499.28;;;14.20;100.00
706;BME280;21234;48.690;9.016;2023-05-08T07:23:32;96501.72;;;14.17;100.00
706;BME280;21234;48.690;9.016;2023-05-08T07:25:58;96500.66;;;14.23;100.00
706;BME280;21234;48.690;9.016;2023-05-08T07:28:25;96501.78;;;14.27;100.00
706;BME280;21234;48.690;9.016;2023-05-08T07:30:52;96498.28;;;14.41;100.00
706;BME280;21234;48.690;9.016;2023-05-08T07:33:19;96495.31;;;14.53;100.00
706;BME280;21234;48.690;9.016;2023-05-08T07:35:46;96507.13;;;14.74;100.00
706;BME280;21234;48.690;9.016;2023-05-08T07:38:14;96506.31;;;14.78;100.00
706;BME280;21234;48.690;9.016;2023-05-08T07:40:40;96503.84;;;14.72;100.00
706;BME280;21234;48.690;9.016;2023-05-08T07:43:07;96501.66;;;14.74;100.00
706;BME280;21234;48.690;9.016;2023-05-08T07:45:34;96504.72;;;14.93;100.00
706;BME280;21234;48.690;9.016;2023-05-08T07:48:01;96499.25;;;15.13;100.00
706;BME280;21234;48.690;9.016;2023-05-08T07:50:28;96503.91;;;15.18;100.00
706;BME280;21234;48.690;9.016;2023-05-08T07:52:55;96501.97;;;15.33;100.00
706;BME280;21234;48.690;9.016;2023-05-08T07:55:23;96502.53;;;15.45;100.00
706;BME280;21234;48.690;9.016;2023-05-08T07:57:50;96508.00;;;15.45;100.00
706;BME280;21234;48.690;9.016;2023-05-08T08:00:17;96509.63;;;15.46;100.00
706;BME280;21234;48.690;9.016;2023-05-08T08:02:44;96507.16;;;15.35;100.00
706;BME280;21234;48.690;9.016;2023-05-08T08:05:11;96511.84;;;15.24;100.00
706;BME280;21234;48.690;9.016;2023-05-08T08:07:38;96509.38;;;15.23;100.00
706;BME280;21234;48.690;9.016;2023-05-08T08:10:07;96507.72;;;15.17;100.00
706;BME280;21234;48.690;9.016;2023-05-08T08:12:35;96509.09;;;15.14;100.00
706;BME280;21234;48.690;9.016;2023-05-08T08:15:04;96507.19;;;15.09;100.00
706;BME280;21234;48.690;9.016;2023-05-08T08:17:31;96510.47;;;15.06;100.00
706;BME280;21234;48.690;9.016;2023-05-08T08:19:58;96509.91;;;15.04;100.00
706;BME280;21234;48.690;9.016;2023-05-08T08:22:25;96512.09;;;14.92;100.00
706;BME280;21234;48.690;9.016;2023-05-08T08:24:53;96521.66;;;14.85;100.00
706;BME280;21234;48.690;9.016;2023-05-08T08:27:20;96521.13;;;14.83;100.00
706;BME280;21234;48.690;9.016;2023-05-08T08:29:48;96515.59;;;14.72;100.00
706;BME280;21234;48.690;9.016;2023-05-08T08:32:15;96527.63;;;14.66;100.00
706;BME280;21234;48.690;9.016;2023-05-08T08:34:42;96512.59;;;14.69;100.00
706;BME280;21234;48.690;9.016;2023-05-08T08:37:08;96525.16;;;14.60;100.00
706;BME280;21234;48.690;9.016;2023-05-08T08:39:35;96519.16;;;14.58;100.00
706;BME280;21234;48.690;9.016;2023-05-08T08:42:02;96521.88;;;14.53;100.00
706;BME280;21234;48.690;9.016;2023-05-08T08:44:29;96526.50;;;14.47;100.00
706;BME280;21234;48.690;9.016;2023-05-08T08:46:58;96516.38;;;14.48;100.00
706;BME280;21234;48.690;9.016;2023-05-08T08:49:28;96515.84;;;14.56;100.00
706;BME280;21234;48.690;9.016;2023-05-08T08:51:58;96518.88;;;14.59;100.00
706;BME280;21234;48.690;9.016;2023-05-08T08:54:29;96521.88;;;14.58;100.00
706;BME280;21234;48.690;9.016;2023-05-08T08:57:00;96527.34;;;14.58;100.00
706;BME280;21234;48.690;9.016;2023-05-08T08:59:31;96528.72;;;14.60;100.00
706;BME280;21234;48.690;9.016;2023-05-08T09:02:03;96523.78;;;14.57;100.00
706;BME280;21234;48.690;9.016;2023-05-08T09:04:31;96523.22;;;14.50;100.00
706;BME280;21234;48.690;9.016;2023-05-08T09:06:58;96524.31;;;14.49;100.00
706;BME280;21234;48.690;9.016;2023-05-08T09:09:27;96525.41;;;14.48;100.00
706;BME280;21234;48.690;9.016;2023-05-08T09:11:54;96523.50;;;14.49;100.00
706;BME280;21234;48.690;9.016;2023-05-08T09:14:21;96520.41;;;14.40;100.00
706;BME280;21234;48.690;9.016;2023-05-08T09:16:50;96525.38;;;14.43;100.00
706;BME280;21234;48.690;9.016;2023-05-08T09:19:20;96529.16;;;14.37;100.00
706;BME280;21234;48.690;9.016;2023-05-08T09:21:47;96529.44;;;14.40;100.00
706;BME280;21234;48.690;9.016;2023-05-08T09:24:14;96537.06;;;14.28;100.00
706;BME280;21234;48.690;9.016;2023-05-08T09:26:41;96526.13;;;14.33;100.00
706;BME280;21234;48.690;9.016;2023-05-08T09:29:09;96533.53;;;14.38;100.00
706;BME280;21234;48.690;9.016;2023-05-08T09:31:38;96534.59;;;14.32;100.00
706;BME280;21234;48.690;9.016;2023-05-08T09:34:06;96538.72;;;14.34;100.00
706;BME280;21234;48.690;9.016;2023-05-08T09:36:34;96531.34;;;14.40;100.00
706;BME280;21234;48.690;9.016;2023-05-08T09:39:01;96534.66;;;14.42;100.00
706;BME280;21234;48.690;9.016;2023-05-08T09:41:28;96534.13;;;14.45;100.00
706;BME280;21234;48.690;9.016;2023-05-08T09:44:02;96540.44;;;14.45;100.00
706;BME280;21234;48.690;9.016;2023-05-08T09:46:30;96535.50;;;14.42;100.00
706;BME280;21234;48.690;9.016;2023-05-08T09:49:00;96543.72;;;14.48;100.00
706;BME280;21234;48.690;9.016;2023-05-08T09:51:28;96541.53;;;14.44;100.00
706;BME280;21234;48.690;9.016;2023-05-08T09:53:58;96547.19;;;14.33;100.00
706;BME280;21234;48.690;9.016;2023-05-08T09:56:29;96555.38;;;14.28;100.00
706;BME280;21234;48.690;9.016;2023-05-08T09:58:56;96544.72;;;14.31;100.00
706;BME280;21234;48.690;9.016;2023-05-08T10:01:27;96554.00;;;14.25;100.00
706;BME280;21234;48.690;9.016;2023-05-08T10:03:55;96545.53;;;14.27;100.00
706;BME280;21234;48.690;9.016;2023-05-08T10:06:22;96554.28;;;14.24;100.00
706;BME280;21234;48.690;9.016;2023-05-08T10:09:06;96547.16;;;14.23;100.00
706;BME280;21234;48.690;9.016;2023-05-08T10:11:33;96550.97;;;14.22;100.00
706;BME280;21234;48.690;9.016;2023-05-08T10:14:00;96552.91;;;14.26;100.00
706;BME280;21234;48.690;9.016;2023-05-08T10:16:28;96552.06;;;14.21;100.00
706;BME280;21234;48.690;9.016;2023-05-08T10:19:00;96553.69;;;14.17;100.00
706;BME280;21234;48.690;9.016;2023-05-08T10:21:33;96555.91;;;14.25;100.00
706;BME280;21234;48.690;9.016;2023-05-08T10:24:04;96563.56;;;14.23;100.00
706;BME280;21234;48.690;9.016;2023-05-08T10:26:33;96559.16;;;14.17;100.00
706;BME280;21234;48.690;9.016;2023-05-08T10:29:06;96561.28;;;14.09;100.00
706;BME280;21234;48.690;9.016;2023-05-08T10:31:35;96558.31;;;14.16;100.00
706;BME280;21234;48.690;9.016;2023-05-08T10:34:02;96560.56;;;14.24;100.00
706;BME280;21234;48.690;9.016;2023-05-08T10:36:29;96560.28;;;14.31;100.00
706;BME280;21234;48.690;9.016;2023-05-08T10:38:57;96560.31;;;14.36;100.00
706;BME280;21234;48.690;9.016;2023-05-08T10:41:25;96553.81;;;14.42;100.00
706;BME280;21234;48.690;9.016;2023-05-08T10:43:53;96539.31;;;14.41;100.00
706;BME280;21234;48.690;9.016;2023-05-08T10:46:26;96542.38;;;14.50;100.00
706;BME280;21234;48.690;9.016;2023-05-08T10:48:59;96532.53;;;14.64;100.00
706;BME280;21234;48.690;9.016;2023-05-08T10:51:39;96538.34;;;14.78;100.00
706;BME280;21234;48.690;9.016;2023-05-08T10:54:12;96544.94;;;14.87;100.00
706;BME280;21234;48.690;9.016;2023-05-08T10:56:41;96538.63;;;14.97;100.00
706;BME280;21234;48.690;9.016;2023-05-08T10:59:16;96531.81;;;14.89;100.00
706;BME280;21234;48.690;9.016;2023-05-08T11:01:46;96534.56;;;14.94;100.00
706;BME280;21234;48.690;9.016;2023-05-08T11:04:20;96535.63;;;14.98;100.00
706;BME280;21234;48.690;9.016;2023-05-08T11:06:48;96526.88;;;15.06;100.00
706;BME280;21234;48.690;9.016;2023-05-08T11:09:21;96534.00;;;15.07;100.00
706;BME280;21234;48.690;9.016;2023-05-08T11:11:58;96540.56;;;14.96;100.00
706;BME280;21234;48.690;9.016;2023-05-08T11:14:30;96534.28;;;15.06;100.00
706;BME280;21234;48.690;9.016;2023-05-08T11:17:05;96531.25;;;15.02;100.00
706;BME280;21234;48.690;9.016;2023-05-08T11:19:33;96537.84;;;15.06;100.00
706;BME280;21234;48.690;9.016;2023-05-08T11:22:30;96532.09;;;15.18;100.00
706;BME280;21234;48.690;9.016;2023-05-08T11:25:02;96529.38;;;15.18;100.00
706;BME280;21234;48.690;9.016;2023-05-08T11:28:11;96520.88;;;15.25;100.00
706;BME280;21234;48.690;9.016;2023-05-08T11:30:43;96527.72;;;15.27;100.00
706;BME280;21234;48.690;9.016;2023-05-08T11:33:18;96524.44;;;15.20;100.00
706;BME280;21234;48.690;9.016;2023-05-08T11:35:47;96521.72;;;15.25;100.00
706;BME280;21234;48.690;9.016;2023-05-08T11:38:19;96518.41;;;15.38;100.00
706;BME280;21234;48.690;9.016;2023-05-08T11:40:48;96517.31;;;15.50;100.00
706;BME280;21234;48.690;9.016;2023-05-08T11:43:24;96521.69;;;15.56;100.00
706;BME280;21234;48.690;9.016;2023-05-08T11:45:53;96514.56;;;15.70;100.00
706;BME280;21234;48.690;9.016;2023-05-08T11:48:20;96520.59;;;15.72;100.00
706;BME280;21234;48.690;9.016;2023-05-08T11:50:46;96521.97;;;15.74;100.00
706;BME280;21234;48.690;9.016;2023-05-08T11:53:13;96532.09;;;15.69;100.00
706;BME280;21234;48.690;9.016;2023-05-08T11:55:40;96520.31;;;15.53;100.00
706;BME280;21234;48.690;9.016;2023-05-08T11:58:13;96518.97;;;15.61;100.00
706;BME280;21234;48.690;9.016;2023-05-08T12:00:40;96522.50;;;15.71;100.00
706;BME280;21234;48.690;9.016;2023-05-08T12:03:12;96523.34;;;15.72;100.00
706;BME280;21234;48.690;9.016;2023-05-08T12:05:39;96524.16;;;15.77;100.00
706;BME280;21234;48.690;9.016;2023-05-08T12:08:07;96514.56;;;15.80;100.00
706;BME280;21234;48.690;9.016;2023-05-08T12:10:39;96517.03;;;15.66;100.00
706;BME280;21234;48.690;9.016;2023-05-08T12:13:15;96514.56;;;15.70;100.00
706;BME280;21234;48.690;9.016;2023-05-08T12:15:42;96517.31;;;15.75;100.00
706;BME280;21234;48.690;9.016;2023-05-08T12:18:08;96523.59;;;15.86;100.00
706;BME280;21234;48.690;9.016;2023-05-08T12:20:37;96516.97;;;15.97;100.00
706;BME280;21234;48.690;9.016;2023-05-08T12:23:04;96518.59;;;16.08;100.00
706;BME280;21234;48.690;9.016;2023-05-08T12:25:30;96523.72;;;16.25;100.00
706;BME280;21234;48.690;9.016;2023-05-08T12:27:57;96528.38;;;16.29;100.00
706;BME280;21234;48.690;9.016;2023-05-08T12:30:25;96523.09;;;16.48;100.00
706;BME280;21234;48.690;9.016;2023-05-08T12:32:52;96514.31;;;17.00;100.00
706;BME280;21234;48.690;9.016;2023-05-08T12:35:19;96519.19;;;17.13;100.00
706;BME280;21234;48.690;9.016;2023-05-08T12:37:47;96516.88;;;17.26;100.00
706;BME280;21234;48.690;9.016;2023-05-08T12:40:24;96511.81;;;17.43;100.00
706;BME280;21234;48.690;9.016;2023-05-08T12:42:51;96508.47;;;17.46;100.00
706;BME280;21234;48.690;9.016;2023-05-08T12:45:20;96518.53;;;17.56;100.00
706;BME280;21234;48.690;9.016;2023-05-08T12:47:47;96521.28;;;17.56;100.00
706;BME280;21234;48.690;9.016;2023-05-08T12:50:15;96515.91;;;17.45;96.06
706;BME280;21234;48.690;9.016;2023-05-08T12:52:42;96523.47;;;17.25;97.38
706;BME280;21234;48.690;9.016;2023-05-08T12:55:25;96517.25;;;17.14;96.12
706;BME280;21234;48.690;9.016;2023-05-08T12:57:58;96526.13;;;17.40;100.00
706;BME280;21234;48.690;9.016;2023-05-08T13:00:33;96514.47;;;17.53;100.00
706;BME280;21234;48.690;9.016;2023-05-08T13:03:00;96517.16;;;17.58;96.22
706;BME280;21234;48.690;9.016;2023-05-08T13:05:27;96516.38;;;17.87;88.90
706;BME280;21234;48.690;9.016;2023-05-08T13:07:58;96510.06;;;18.34;93.96
706;BME280;21234;48.690;9.016;2023-05-08T13:10:46;96511.19;;;18.33;88.27
706;BME280;21234;48.690;9.016;2023-05-08T13:13:14;96517.06;;;18.21;83.22
706;BME280;21234;48.690;9.016;2023-05-08T13:15:41;96505.78;;;17.99;89.96
706;BME280;21234;48.690;9.016;2023-05-08T13:18:08;96505.72;;;17.80;87.83
706;BME280;21234;48.690;9.016;2023-05-08T13:20:35;96503.75;;;17.86;86.38
706;BME280;21234;48.690;9.016;2023-05-08T13:23:02;96507.06;;;17.83;87.99
706;BME280;21234;48.690;9.016;2023-05-08T13:25:29;96510.25;;;17.61;87.60